createdAt,value
2023-04-23T00:00:07.129Z,8.60
2023-04-23T00:02:39.999Z,9.75
2023-04-23T00:05:08.180Z,14.65
2023-04-23T00:07:36.345Z,14.77
2023-04-23T00:10:05.736Z,10.77
2023-04-23T00:12:33.414Z,10.32
2023-04-23T00:15:01.741Z,7.88
2023-04-23T00:17:29.008Z,11.75
2023-04-23T00:19:56.253Z,11.75
2023-04-23T00:22:23.446Z,10.60
2023-04-23T00:24:50.869Z,14.07
2023-04-23T00:27:18.268Z,10.88
2023-04-23T00:29:46.509Z,9.90
2023-04-23T00:32:14.891Z,11.95
2023-04-23T00:34:42.654Z,10.77
2023-04-23T00:37:10.249Z,13.40
2023-04-23T00:39:38.824Z,14.82
2023-04-23T00:42:12.409Z,13.32
2023-04-23T00:44:40.865Z,12.35
2023-04-23T00:47:08.806Z,12.82
2023-04-23T00:49:36.857Z,12.15
2023-04-23T00:52:04.140Z,13.70
2023-04-23T00:54:31.643Z,9.93
2023-04-23T00:56:59.524Z,14.82
2023-04-23T00:59:28.879Z,15.02
2023-04-23T01:01:56.777Z,8.20
2023-04-23T01:04:24.800Z,13.55
2023-04-23T01:06:54.669Z,11.63
2023-04-23T01:09:22.635Z,10.95
2023-04-23T01:11:51.023Z,17.85
2023-04-23T01:14:18.335Z,12.70
2023-04-23T01:16:47.122Z,14.65
2023-04-23T01:19:16.204Z,11.95
2023-04-23T01:21:44.056Z,19.00
2023-04-23T01:24:11.965Z,15.88
2023-04-23T01:26:40.754Z,11.27
2023-04-23T01:29:09.963Z,11.25
2023-04-23T01:31:37.437Z,8.60
2023-04-23T01:34:05.258Z,11.32
2023-04-23T01:36:33.316Z,14.32
2023-04-23T01:39:00.650Z,14.70
2023-04-23T01:41:28.905Z,11.10
2023-04-23T01:43:57.480Z,12.27
2023-04-23T01:46:25.243Z,12.30
2023-04-23T01:48:52.570Z,14.75
2023-04-23T01:51:20.282Z,10.98
2023-04-23T01:53:47.439Z,11.50
2023-04-23T01:56:16.408Z,13.55
2023-04-23T01:58:44.209Z,11.18
2023-04-23T02:01:11.729Z,14.23
2023-04-23T02:03:39.179Z,16.33
2023-04-23T02:06:06.823Z,10.23
2023-04-23T02:08:34.091Z,16.13
2023-04-23T02:11:01.427Z,14.60
2023-04-23T02:13:28.622Z,18.95
2023-04-23T02:15:56.017Z,10.50
2023-04-23T02:18:23.451Z,10.40
2023-04-23T02:20:51.023Z,10.63
2023-04-23T02:23:18.355Z,10.60
2023-04-23T02:25:46.098Z,11.25
2023-04-23T02:28:13.518Z,17.10
2023-04-23T02:30:46.720Z,16.77
2023-04-23T02:33:14.219Z,15.75
2023-04-23T02:35:41.576Z,12.02
2023-04-23T02:38:08.880Z,13.00
2023-04-23T02:40:36.631Z,11.20
2023-04-23T02:43:03.992Z,18.67
2023-04-23T02:45:31.858Z,11.45
2023-04-23T02:47:59.802Z,17.88
2023-04-23T02:50:27.199Z,13.02
2023-04-23T02:52:54.520Z,13.85
2023-04-23T02:55:21.905Z,13.00
2023-04-23T02:57:49.101Z,10.98
2023-04-23T03:00:17.050Z,12.93
2023-04-23T03:02:45.460Z,12.65
2023-04-23T03:05:12.961Z,14.18
2023-04-23T03:07:40.869Z,14.30
2023-04-23T03:10:08.807Z,13.30
2023-04-23T03:12:36.436Z,12.02
2023-04-23T03:15:04.088Z,11.60
2023-04-23T03:17:33.463Z,14.73
2023-04-23T03:20:01.333Z,15.35
2023-04-23T03:22:29.031Z,11.60
2023-04-23T03:24:56.506Z,8.10
2023-04-23T03:27:23.798Z,10.52
2023-04-23T03:29:51.203Z,10.52
2023-04-23T03:32:18.591Z,9.95
2023-04-23T03:34:45.936Z,12.43
2023-04-23T03:37:13.619Z,12.75
2023-04-23T03:39:41.409Z,11.23
2023-04-23T03:42:09.256Z,14.18
2023-04-23T03:44:38.326Z,14.50
2023-04-23T03:47:06.225Z,14.27
2023-04-23T03:49:34.811Z,9.57
2023-04-23T03:52:02.411Z,9.80
2023-04-23T03:54:31.466Z,17.55
2023-04-23T03:57:09.877Z,15.52
2023-04-23T03:59:43.878Z,19.67
2023-04-23T04:02:11.556Z,16.17
2023-04-23T04:04:39.099Z,8.82
2023-04-23T04:07:07.723Z,15.07
2023-04-23T04:09:35.008Z,23.15
2023-04-23T04:12:02.698Z,17.35
2023-04-23T04:14:31.581Z,11.25
2023-04-23T04:16:58.933Z,16.63
2023-04-23T04:19:26.164Z,20.35
2023-04-23T04:21:53.408Z,15.68
2023-04-23T04:24:24.941Z,13.80
2023-04-23T04:26:54.050Z,10.13
2023-04-23T04:29:21.350Z,13.40
2023-04-23T04:31:48.940Z,14.13
2023-04-23T04:34:17.950Z,16.65
2023-04-23T04:36:45.715Z,14.02
2023-04-23T04:39:14.789Z,13.30
2023-04-23T04:41:42.925Z,10.88
2023-04-23T04:44:10.155Z,17.58
2023-04-23T04:46:40.601Z,9.15
2023-04-23T04:49:08.973Z,16.15
2023-04-23T04:51:40.972Z,12.23
2023-04-23T04:54:08.414Z,11.75
2023-04-23T04:56:35.688Z,12.00
2023-04-23T04:59:04.037Z,15.98
2023-04-23T05:01:32.500Z,12.80
2023-04-23T05:04:00.045Z,11.90
2023-04-23T05:06:28.814Z,15.38
2023-04-23T05:08:56.136Z,10.60
2023-04-23T05:11:23.384Z,16.95
2023-04-23T05:13:51.524Z,15.00
2023-04-23T05:16:19.503Z,14.77
2023-04-23T05:18:47.060Z,19.48
2023-04-23T05:21:15.323Z,12.27
2023-04-23T05:23:42.647Z,14.48
2023-04-23T05:26:10.173Z,9.88
2023-04-23T05:28:37.701Z,9.55
2023-04-23T05:31:05.116Z,11.52
2023-04-23T05:33:39.186Z,11.40
2023-04-23T05:36:14.004Z,12.52
2023-04-23T05:38:41.282Z,18.55
2023-04-23T05:41:08.571Z,14.63
2023-04-23T05:43:35.799Z,12.98
2023-04-23T05:46:04.740Z,8.20
2023-04-23T05:48:32.006Z,12.88
2023-04-23T05:50:59.584Z,12.13
2023-04-23T05:53:28.054Z,13.05
2023-04-23T05:55:55.464Z,9.80
2023-04-23T05:58:23.363Z,9.90
2023-04-23T06:00:50.624Z,8.80
2023-04-23T06:03:18.100Z,9.98
2023-04-23T06:05:45.696Z,12.45
2023-04-23T06:08:12.957Z,10.07
2023-04-23T06:10:40.449Z,10.20
2023-04-23T06:13:07.767Z,16.15
2023-04-23T06:15:36.168Z,11.70
2023-04-23T06:18:03.565Z,13.93
2023-04-23T06:20:30.973Z,17.35
2023-04-23T06:22:58.195Z,12.48
2023-04-23T06:25:25.879Z,9.65
2023-04-23T06:27:54.584Z,14.10
2023-04-23T06:30:25.243Z,12.48
2023-04-23T06:32:53.248Z,12.68
2023-04-23T06:35:20.700Z,14.57
2023-04-23T06:37:48.069Z,11.88
2023-04-23T06:40:15.722Z,11.70
2023-04-23T06:42:43.025Z,9.90
2023-04-23T06:45:33.235Z,14.77
2023-04-23T06:48:00.835Z,15.48
2023-04-23T06:50:28.159Z,12.65
2023-04-23T06:52:56.306Z,13.95
2023-04-23T06:55:26.232Z,11.45
2023-04-23T07:00:21.810Z,12.23
2023-04-23T07:02:49.740Z,9.90
2023-04-23T07:05:17.804Z,10.05
2023-04-23T07:07:45.245Z,11.27
2023-04-23T07:10:12.805Z,10.57
2023-04-23T07:12:41.355Z,9.48
2023-04-23T07:15:09.291Z,12.27
2023-04-23T07:17:36.992Z,8.88
2023-04-23T07:20:06.702Z,12.27
2023-04-23T07:22:34.424Z,8.45
2023-04-23T07:25:02.531Z,13.10
2023-04-23T07:27:29.804Z,12.23
2023-04-23T07:29:58.570Z,12.27
2023-04-23T07:32:28.233Z,11.25
2023-04-23T07:34:58.463Z,11.63
2023-04-23T07:37:25.854Z,9.57
2023-04-23T07:39:53.979Z,11.68
2023-04-23T07:42:21.381Z,12.40
2023-04-23T07:44:48.699Z,12.80
2023-04-23T07:47:15.967Z,13.73
2023-04-23T07:49:43.904Z,12.70
2023-04-23T07:52:11.802Z,12.38
2023-04-23T07:54:39.188Z,10.35
2023-04-23T07:57:06.493Z,11.90
2023-04-23T07:59:33.774Z,9.65
2023-04-23T08:02:01.294Z,13.27
2023-04-23T08:04:28.905Z,10.38
2023-04-23T08:06:56.308Z,9.02
2023-04-23T08:09:23.719Z,8.68
2023-04-23T08:11:51.051Z,11.00
2023-04-23T08:14:18.676Z,10.07
2023-04-23T08:16:46.309Z,13.70
2023-04-23T08:19:13.619Z,8.20
2023-04-23T08:21:40.964Z,8.68
2023-04-23T08:24:08.335Z,11.30
2023-04-23T08:26:36.076Z,10.43
2023-04-23T08:29:05.222Z,9.98
2023-04-23T08:31:32.866Z,11.32
2023-04-23T08:34:00.265Z,8.52
2023-04-23T08:36:27.723Z,9.23
2023-04-23T08:38:54.992Z,10.40
2023-04-23T08:41:24.288Z,9.80
2023-04-23T08:44:18.515Z,9.73
2023-04-23T08:46:46.059Z,14.85
2023-04-23T08:49:17.497Z,9.95
2023-04-23T08:51:53.339Z,8.98
2023-04-23T08:54:28.408Z,10.73
2023-04-23T08:56:58.356Z,10.65
2023-04-23T08:59:30.766Z,10.75
2023-04-23T09:01:59.829Z,13.27
2023-04-23T09:04:28.089Z,15.15
2023-04-23T09:06:56.040Z,9.32
2023-04-23T09:09:23.842Z,11.60
2023-04-23T09:11:53.401Z,9.70
2023-04-23T09:14:25.558Z,11.07
2023-04-23T09:16:53.621Z,9.88
2023-04-23T09:19:21.022Z,9.57
2023-04-23T09:21:49.882Z,8.68
2023-04-23T09:24:17.986Z,9.60
2023-04-23T09:26:46.883Z,10.80
2023-04-23T09:29:19.187Z,12.82
2023-04-23T09:31:47.948Z,10.05
2023-04-23T09:34:19.850Z,11.77
2023-04-23T09:36:52.948Z,10.77
2023-04-23T09:39:22.837Z,8.68
2023-04-23T09:41:54.006Z,9.95
2023-04-23T09:44:26.613Z,11.13
2023-04-23T09:46:54.287Z,8.82
2023-04-23T09:49:21.978Z,11.07
2023-04-23T09:51:49.843Z,9.40
2023-04-23T09:54:26.049Z,7.03
2023-04-23T09:56:58.776Z,10.90
2023-04-23T10:02:02.611Z,9.45
2023-04-23T10:04:30.244Z,8.30
2023-04-23T10:07:17.393Z,8.25
2023-04-23T10:09:46.404Z,8.90
2023-04-23T10:14:47.009Z,8.27
2023-04-23T10:17:14.786Z,8.68
2023-04-23T10:19:43.469Z,6.85
2023-04-23T10:22:19.630Z,8.43
2023-04-23T10:24:53.042Z,6.90
2023-04-23T10:29:53.755Z,7.25
2023-04-23T10:32:21.492Z,7.88
2023-04-23T10:34:48.865Z,7.78
2023-04-23T10:37:19.482Z,7.93
2023-04-23T10:39:54.418Z,8.18
2023-04-23T10:42:22.487Z,6.40
2023-04-23T10:44:59.544Z,8.48
2023-04-23T10:47:32.210Z,8.88
2023-04-23T10:50:23.601Z,7.80
2023-04-23T10:52:53.757Z,6.43
2023-04-23T10:55:26.388Z,7.30
2023-04-23T10:58:05.185Z,8.00
2023-04-23T11:00:41.456Z,7.93
2023-04-23T11:03:34.585Z,5.85
2023-04-23T11:06:04.429Z,5.97
2023-04-23T11:08:32.634Z,7.80
2023-04-23T11:11:01.618Z,9.38
2023-04-23T11:13:30.053Z,10.48
2023-04-23T11:16:18.239Z,7.53
2023-04-23T11:19:11.371Z,6.20
2023-04-23T11:22:00.935Z,8.73
2023-04-23T11:24:37.035Z,7.30
2023-04-23T11:27:11.826Z,8.77
2023-04-23T11:29:41.058Z,4.65
2023-04-23T11:32:13.528Z,6.18
2023-04-23T11:34:43.235Z,6.32
2023-04-23T11:37:12.198Z,6.95
2023-04-23T11:39:41.585Z,6.20
2023-04-23T11:42:14.108Z,7.80
2023-04-23T11:44:42.920Z,5.82
2023-04-23T11:47:12.517Z,8.25
2023-04-23T11:49:41.497Z,5.05
2023-04-23T11:52:10.290Z,4.40
2023-04-23T11:54:40.483Z,6.40
2023-04-23T11:59:36.045Z,5.80
2023-04-23T12:02:03.448Z,9.10
2023-04-23T12:04:33.066Z,6.25
2023-04-23T12:07:00.625Z,4.85
2023-04-23T12:09:29.562Z,4.63
2023-04-23T12:11:58.670Z,4.20
2023-04-23T12:14:31.232Z,4.22
2023-04-23T12:16:59.628Z,8.13
2023-04-23T12:19:28.948Z,5.25
2023-04-23T12:22:03.604Z,4.63
2023-04-23T12:24:44.658Z,2.15
2023-04-23T12:27:15.895Z,4.68
2023-04-23T12:29:47.435Z,6.28
2023-04-23T12:32:15.659Z,7.35
2023-04-23T12:34:53.529Z,5.72
2023-04-23T12:37:38.987Z,3.78
2023-04-23T12:40:07.401Z,4.32
2023-04-23T12:42:35.461Z,4.90
2023-04-23T12:45:10.077Z,3.92
2023-04-23T12:47:37.422Z,12.85
2023-04-23T12:50:05.680Z,4.70
2023-04-23T12:52:33.158Z,5.47
2023-04-23T12:55:01.388Z,5.22
2023-04-23T12:57:29.112Z,5.82
2023-04-23T12:59:56.546Z,3.22
2023-04-23T13:02:25.737Z,6.45
2023-04-23T13:04:59.621Z,3.67
2023-04-23T13:07:27.039Z,3.22
2023-04-23T13:09:54.299Z,4.68
2023-04-23T13:12:21.607Z,4.72
2023-04-23T13:14:48.969Z,3.05
2023-04-23T13:17:16.443Z,5.32
2023-04-23T13:19:44.931Z,2.65
2023-04-23T13:22:12.287Z,3.00
2023-04-23T13:24:39.537Z,2.65
2023-04-23T13:27:07.255Z,3.67
2023-04-23T13:29:34.739Z,3.60
2023-04-23T13:32:02.156Z,3.47
2023-04-23T13:34:30.875Z,2.97
2023-04-23T13:37:05.535Z,2.08
2023-04-23T13:39:33.348Z,1.38
2023-04-23T13:42:09.029Z,5.32
2023-04-23T13:44:37.107Z,3.53
2023-04-23T13:47:04.562Z,3.45
2023-04-23T13:49:31.804Z,3.42
2023-04-23T13:52:04.163Z,1.52
2023-04-23T13:54:31.569Z,1.15
2023-04-23T13:56:59.048Z,1.05
2023-04-23T13:59:26.359Z,2.75
2023-04-23T14:01:53.782Z,1.45
2023-04-23T14:04:26.970Z,0.80
2023-04-23T14:06:54.541Z,0.80
2023-04-23T14:09:22.585Z,1.42
2023-04-23T14:11:49.992Z,3.75
2023-04-23T14:14:18.181Z,0.77
2023-04-23T14:16:45.502Z,0.93
2023-04-23T14:19:12.781Z,5.70
2023-04-23T14:21:40.747Z,2.17
2023-04-23T14:24:10.495Z,1.65
2023-04-23T14:29:42.233Z,5.53
2023-04-23T14:32:09.666Z,2.97
2023-04-23T14:34:36.910Z,2.65
2023-04-23T14:37:04.384Z,0.73
2023-04-23T14:39:31.939Z,4.20
2023-04-23T14:41:59.104Z,0.90
2023-04-23T14:44:27.072Z,1.92
2023-04-23T14:46:55.058Z,1.83
2023-04-23T14:49:22.342Z,1.52
2023-04-23T14:51:50.998Z,4.20
2023-04-23T14:54:19.522Z,4.00
2023-04-23T14:56:47.036Z,2.17
2023-04-23T14:59:14.384Z,2.53
2023-04-23T15:01:41.767Z,1.75
2023-04-23T15:04:10.773Z,2.55
2023-04-23T15:06:40.432Z,1.80
2023-04-23T15:09:10.742Z,3.03
2023-04-23T15:11:38.938Z,6.95
2023-04-23T15:14:23.089Z,2.85
2023-04-23T15:16:50.626Z,1.70
2023-04-23T15:19:18.580Z,3.20
2023-04-23T15:21:46.948Z,1.33
2023-04-23T15:24:15.347Z,3.13
2023-04-23T15:26:43.295Z,2.15
2023-04-23T15:29:10.907Z,2.65
2023-04-23T15:31:38.849Z,2.78
2023-04-23T15:34:08.653Z,2.58
2023-04-23T15:36:37.595Z,2.65
2023-04-23T15:39:06.443Z,3.08
2023-04-23T15:41:36.677Z,2.08
2023-04-23T15:44:06.381Z,4.57
2023-04-23T15:46:33.702Z,3.80
2023-04-23T15:49:01.068Z,3.00
2023-04-23T15:51:28.636Z,2.97
2023-04-23T15:53:55.880Z,5.07
2023-04-23T15:56:23.075Z,4.72
2023-04-23T15:58:50.455Z,4.07
2023-04-23T16:01:17.685Z,3.88
2023-04-23T16:03:57.568Z,6.53
2023-04-23T16:06:32.280Z,6.30
2023-04-23T16:08:59.655Z,7.70
2023-04-23T16:11:28.349Z,4.50
2023-04-23T16:13:57.055Z,5.43
2023-04-23T16:16:24.425Z,7.60
2023-04-23T16:18:51.705Z,3.88
2023-04-23T16:21:18.980Z,3.03
2023-04-23T16:23:46.316Z,4.97
2023-04-23T16:26:13.842Z,4.93
2023-04-23T16:28:41.118Z,3.60
2023-04-23T16:31:08.600Z,4.07
2023-04-23T16:33:36.355Z,4.05
2023-04-23T16:36:03.944Z,3.88
2023-04-23T16:38:32.526Z,4.82
2023-04-23T16:40:59.877Z,3.35
2023-04-23T16:43:27.487Z,5.72
2023-04-23T16:45:54.880Z,5.78
2023-04-23T16:48:22.232Z,5.05
2023-04-23T16:50:49.592Z,5.70
2023-04-23T16:53:17.573Z,4.75
2023-04-23T16:55:44.813Z,4.63
2023-04-23T16:58:12.179Z,6.28
2023-04-23T17:00:39.555Z,2.53
2023-04-23T17:03:07.028Z,6.68
2023-04-23T17:05:35.046Z,3.83
2023-04-23T17:08:02.412Z,8.20
2023-04-23T17:10:29.620Z,6.57
2023-04-23T17:12:56.970Z,4.30
2023-04-23T17:15:24.321Z,5.60
2023-04-23T17:17:52.964Z,3.60
2023-04-23T17:20:20.298Z,4.22
2023-04-23T17:22:47.617Z,7.43
2023-04-23T17:25:14.865Z,4.80
2023-04-23T17:27:42.321Z,3.67
2023-04-23T17:30:10.075Z,4.20
2023-04-23T17:32:37.623Z,3.55
2023-04-23T17:35:12.760Z,4.45
2023-04-23T17:37:40.407Z,4.47
2023-04-23T17:40:09.702Z,4.95
2023-04-23T17:42:36.987Z,4.63
2023-04-23T17:45:06.009Z,3.10
2023-04-23T17:47:33.487Z,4.57
2023-04-23T17:50:00.865Z,2.85
2023-04-23T17:52:28.138Z,4.47
2023-04-23T17:54:56.791Z,5.53
2023-04-23T17:57:24.314Z,1.98
2023-04-23T17:59:51.521Z,3.08
2023-04-23T18:02:18.940Z,3.90
2023-04-23T18:04:46.202Z,4.95
2023-04-23T18:07:13.504Z,6.18
2023-04-23T18:09:40.785Z,4.93
2023-04-23T18:12:08.013Z,8.27
2023-04-23T18:14:35.426Z,4.75
2023-04-23T18:17:03.585Z,4.55
2023-04-23T18:19:30.968Z,6.82
2023-04-23T18:22:02.093Z,6.28
2023-04-23T18:24:29.466Z,6.05
2023-04-23T18:26:58.581Z,6.82
2023-04-23T18:29:26.198Z,7.53
2023-04-23T18:31:53.790Z,4.80
2023-04-23T18:34:23.986Z,6.93
2023-04-23T18:36:54.945Z,5.18
2023-04-23T18:39:22.540Z,7.18
2023-04-23T18:41:50.432Z,6.50
2023-04-23T18:44:18.240Z,7.13
2023-04-23T18:46:46.575Z,4.53
2023-04-23T18:49:39.752Z,5.45
2023-04-23T18:52:07.455Z,5.00
2023-04-23T18:54:35.346Z,5.28
2023-04-23T18:57:03.264Z,7.40
2023-04-23T18:59:34.988Z,6.05
2023-04-23T19:02:03.828Z,9.13
2023-04-23T19:04:32.463Z,5.05
2023-04-23T19:07:00.519Z,5.45
2023-04-23T19:09:27.845Z,7.65
2023-04-23T19:11:55.337Z,6.80
2023-04-23T19:14:22.570Z,7.65
2023-04-23T19:16:52.777Z,6.20
2023-04-23T19:21:47.060Z,11.30
2023-04-23T19:24:14.269Z,8.13
2023-04-23T19:26:41.542Z,6.35
2023-04-23T19:29:08.758Z,8.45
2023-04-23T19:31:36.399Z,9.68
2023-04-23T19:34:03.815Z,9.43
2023-04-23T19:36:31.076Z,9.57
2023-04-23T19:38:58.456Z,11.50
2023-04-23T19:41:26.186Z,7.18
2023-04-23T19:43:53.480Z,5.93
2023-04-23T19:46:21.161Z,7.03
2023-04-23T19:48:48.384Z,6.38
2023-04-23T19:51:15.813Z,7.70
2023-04-23T19:53:43.116Z,7.13
2023-04-23T19:56:13.153Z,6.00
2023-04-23T20:01:08.020Z,9.48
2023-04-23T20:03:35.649Z,8.02
2023-04-23T20:06:02.975Z,8.30
2023-04-23T20:08:41.512Z,12.25
2023-04-23T20:11:10.518Z,11.43
2023-04-23T20:13:37.890Z,19.60
2023-04-23T20:16:05.180Z,12.50
2023-04-23T20:18:35.564Z,30.73
2023-04-23T20:21:02.991Z,9.60
2023-04-23T20:23:30.193Z,11.75
2023-04-23T20:25:57.407Z,9.23
2023-04-23T20:28:24.692Z,9.80
2023-04-23T20:30:51.913Z,14.10
2023-04-23T20:33:19.645Z,10.68
2023-04-23T20:35:47.703Z,11.05
2023-04-23T20:38:19.121Z,11.55
2023-04-23T20:40:47.801Z,10.23
2023-04-23T20:43:15.199Z,10.70
2023-04-23T20:45:43.177Z,10.15
2023-04-23T20:48:10.613Z,10.88
2023-04-23T20:50:37.911Z,12.85
2023-04-23T20:53:05.575Z,12.57
2023-04-23T20:55:33.039Z,12.30
2023-04-23T20:58:00.507Z,11.52
2023-04-23T21:00:27.986Z,16.20
2023-04-23T21:02:55.551Z,15.43
2023-04-23T21:05:22.901Z,10.20
2023-04-23T21:07:50.775Z,11.85
2023-04-23T21:10:18.080Z,10.88
2023-04-23T21:12:46.010Z,13.15
2023-04-23T21:15:15.214Z,10.77
2023-04-23T21:17:42.712Z,11.37
2023-04-23T21:20:10.352Z,10.95
2023-04-23T21:22:37.637Z,10.60
2023-04-23T21:25:05.389Z,9.40
2023-04-23T21:27:32.858Z,10.98
2023-04-23T21:30:07.444Z,9.43
2023-04-23T21:32:34.938Z,11.13
2023-04-23T21:35:02.192Z,12.32
2023-04-23T21:37:29.474Z,9.82
2023-04-23T21:39:56.743Z,9.95
2023-04-23T21:42:24.126Z,9.82
2023-04-23T21:44:51.426Z,10.90
2023-04-23T21:47:18.609Z,12.07
2023-04-23T21:49:46.352Z,8.32
2023-04-23T21:52:14.402Z,7.93
2023-04-23T21:54:41.587Z,9.63
2023-04-23T21:57:08.863Z,8.18
2023-04-23T21:59:36.357Z,9.43
2023-04-23T22:02:04.000Z,9.25
2023-04-23T22:04:31.449Z,7.95
2023-04-23T22:07:03.584Z,6.45
2023-04-23T22:09:31.165Z,7.40
2023-04-23T22:12:02.330Z,10.70
2023-04-23T22:14:30.104Z,5.80
2023-04-23T22:16:58.935Z,6.18
2023-04-23T22:19:26.317Z,7.05
2023-04-23T22:21:54.537Z,6.13
2023-04-23T22:24:22.332Z,7.38
2023-04-23T22:26:49.734Z,7.45
2023-04-23T22:29:17.004Z,8.98
2023-04-23T22:31:44.412Z,6.45
2023-04-23T22:34:11.704Z,6.35
2023-04-23T22:36:40.572Z,6.28
2023-04-23T22:39:07.866Z,6.18
2023-04-23T22:41:38.717Z,7.13
2023-04-23T22:44:06.632Z,5.90
2023-04-23T22:46:34.144Z,7.75
2023-04-23T22:49:02.747Z,6.68
2023-04-23T22:51:33.389Z,9.85
2023-04-23T22:54:00.725Z,6.68
2023-04-23T22:56:27.935Z,6.90
2023-04-23T22:58:55.261Z,14.13
2023-04-23T23:01:22.499Z,7.78
2023-04-23T23:03:49.881Z,7.32
2023-04-23T23:06:17.801Z,7.97
2023-04-23T23:08:45.072Z,6.00
2023-04-23T23:11:12.282Z,6.47
2023-04-23T23:13:40.618Z,7.57
2023-04-23T23:16:08.044Z,8.48
2023-04-23T23:18:35.552Z,8.10
2023-04-23T23:21:03.122Z,8.25
2023-04-23T23:23:30.515Z,6.00
2023-04-23T23:25:59.443Z,5.43
2023-04-23T23:28:27.516Z,9.05
2023-04-23T23:30:55.559Z,7.65
2023-04-23T23:33:23.392Z,6.85
2023-04-23T23:35:50.835Z,6.47
2023-04-23T23:38:18.093Z,9.25
2023-04-23T23:40:45.349Z,8.55
2023-04-23T23:43:12.670Z,7.28
2023-04-23T23:45:40.035Z,6.93
2023-04-23T23:48:07.479Z,9.80
2023-04-23T23:50:34.881Z,10.80
2023-04-23T23:53:02.396Z,11.18
2023-04-23T23:55:29.671Z,9.13
2023-04-23T23:57:56.892Z,9.68
